Sarasota, FL

1:00 AM EST on November 26, 2014 (GMT -0500)
GULF GATE EAST | Change Station
CLOSE
Current Station
Personal Weather Station
Location: SARASOTA, FL
Elevation: 26 ft
Nearby Weather Stations

Elev 26 ft 27.26 °N, 82.50 °W | Updated 12 seconds ago

Mostly Cloudy
Mostly Cloudy
72.0 °F
Feels Like 72.0 °F
N
0.0
Wind Variable Wind from WSW
Gusts 3.0 mph

Today
High -- | Low -- °F
--% Chance of Precip.
Yesterday
High -- | Low -- °F
Precip. -- in
6:58 AM 5:35 PM
Waxing Crescent, 17% visible
Pressure 29.86 in
Visibility 10.0 miles
Clouds Few 9000 ft
Dew Point 71 °F
Humidity 97%
Rainfall 0.00 in
Snow Depth Not available.
UV 0 out of 12
Pollen .50 out of 12
Air Quality Not available.
Flu Activity Not available.
METAR KSRQ 260553Z AUTO 18011KT 10SM FEW090 22/22 A2986 RMK AO2 SLP110 60021 T02220217 10239 20217 55007

More Conditions Fewer Conditions

Pressure 29.86 in
Visibility 10.0 miles
Clouds Few 9000 ft
Dew Point 71 °F
Humidity 97%
Rainfall 0.00 in
Snow Depth Not available.
UV 0 out of 12
Pollen .50 out of 12
Air Quality Not available.
Flu Activity Not available.
METAR KSRQ 260553Z AUTO 18011KT 10SM FEW090 22/22 A2986 RMK AO2 SLP110 60021 T02220217 10239 20217 55007

More Conditions Fewer Conditions

10-Day Weather Forecast

Almanac

Astronomy

Nov. 26, 2014 Rise Set
Actual Time
Civil Twilight
Nautical Twilight
Astronomical Twilight
Moon
Length of Visible Light
Length of Day
Tomorrow will be .
, % of the Moon is Illuminated

Today's Extremes

State Highs State Lows

Community

WunderPhotos

Upload Photos

1,773,689 photos uploaded!

WunderBlogs® & News

Nearby

Air Quality

  Air Quality AQ Index Pollutant
Not available.

Snow Depth

Station Depth Elevation

Earthquake Activity

City Distance Mag. Time & Date
Minimum magnitude displayed is 2.5.

Coastal Water Temperatures

Place Temperature

Nearby Weather Stations